createdAt,value
2022-09-10T00:01:12.764Z,100863.47
2022-09-10T00:03:39.613Z,100866.72
2022-09-10T00:06:08.915Z,100873.78
2022-09-10T00:08:35.730Z,100869.06
2022-09-10T00:11:06.912Z,100873.88
2022-09-10T00:13:34.558Z,100871.78
2022-09-10T00:16:04.368Z,100869.81
2022-09-10T00:18:31.796Z,100877.28
2022-09-10T00:20:59.667Z,100860.69
2022-09-10T00:23:28.718Z,100862.97
2022-09-10T00:25:57.867Z,100871.13
2022-09-10T00:28:27.962Z,100871.84
2022-09-10T00:30:55.455Z,100875.38
2022-09-10T00:33:23.992Z,100885.53
2022-09-10T00:35:50.914Z,100873.09
2022-09-10T00:38:18.622Z,100884.94
2022-09-10T00:40:45.633Z,100884.34
2022-09-10T00:43:14.783Z,100878.97
2022-09-10T00:45:45.434Z,100886.25
2022-09-10T00:48:16.818Z,100895.56
2022-09-10T00:50:46.743Z,100891.09
2022-09-10T00:53:16.055Z,100888.53
2022-09-10T00:55:44.090Z,100887.13
2022-09-10T00:58:13.940Z,100893.44
2022-09-10T01:00:41.888Z,100892.53
2022-09-10T01:03:13.762Z,100897.56
2022-09-10T01:05:42.662Z,100899.47
2022-09-10T01:08:13.565Z,100896.81
2022-09-10T01:10:52.474Z,100888.34
2022-09-10T01:13:32.787Z,100893.09
2022-09-10T01:16:10.164Z,100896.75
2022-09-10T01:18:49.114Z,100895.13
2022-09-10T01:21:22.223Z,100890.94
2022-09-10T01:24:16.527Z,100895.00
2022-09-10T01:27:10.856Z,100897.19
2022-09-10T01:29:48.708Z,100904.09
2022-09-10T01:32:22.330Z,100899.31
2022-09-10T01:34:56.669Z,100897.50
2022-09-10T01:37:28.675Z,100898.75
2022-09-10T01:39:56.647Z,100892.41
2022-09-10T01:42:25.168Z,100898.31
2022-09-10T01:44:55.111Z,100897.34
2022-09-10T01:47:52.081Z,100895.38
2022-09-10T01:50:25.760Z,100899.38
2022-09-10T01:53:14.479Z,100895.47
2022-09-10T01:55:50.454Z,100896.03
2022-09-10T01:58:22.672Z,100890.91
2022-09-10T02:01:07.828Z,100887.00
2022-09-10T02:03:37.405Z,100894.22
2022-09-10T02:06:07.283Z,100874.22
2022-09-10T02:08:39.432Z,100889.75
2022-09-10T02:11:11.840Z,100880.75
2022-09-10T02:13:45.122Z,100878.47
2022-09-10T02:16:31.227Z,100882.41
2022-09-10T02:18:59.744Z,100884.81
2022-09-10T02:21:26.955Z,100874.84
2022-09-10T02:23:57.163Z,100879.91
2022-09-10T02:26:25.964Z,100883.44
2022-09-10T02:28:54.652Z,100882.16
2022-09-10T02:31:22.566Z,100885.06
2022-09-10T02:33:51.395Z,100875.75
2022-09-10T02:36:18.713Z,100880.38
2022-09-10T02:38:45.776Z,100886.78
2022-09-10T02:41:14.211Z,100892.31
2022-09-10T02:43:42.756Z,100890.19
2022-09-10T02:46:10.023Z,100898.66
2022-09-10T02:48:38.818Z,100899.47
2022-09-10T02:51:08.843Z,100900.44
2022-09-10T02:53:37.924Z,100900.16
2022-09-10T02:56:07.710Z,100895.53
2022-09-10T02:58:36.072Z,100899.19
2022-09-10T03:01:08.870Z,100891.44
2022-09-10T03:03:36.615Z,100895.34
2022-09-10T03:06:04.289Z,100891.22
2022-09-10T03:08:32.981Z,100894.75
2022-09-10T03:10:59.969Z,100895.53
2022-09-10T03:13:30.536Z,100898.72
2022-09-10T03:15:59.938Z,100902.97
2022-09-10T03:18:28.073Z,100899.09
2022-09-10T03:20:55.177Z,100900.97
2022-09-10T03:23:22.084Z,100907.41
2022-09-10T03:25:50.437Z,100904.59
2022-09-10T03:28:24.559Z,100907.53
2022-09-10T03:30:52.021Z,100900.34
2022-09-10T03:33:21.331Z,100913.91
2022-09-10T03:35:48.470Z,100910.56
2022-09-10T03:38:15.217Z,100911.78
2022-09-10T03:40:42.164Z,100915.06
2022-09-10T03:43:13.102Z,100913.16
2022-09-10T03:45:40.122Z,100915.47
2022-09-10T03:48:07.142Z,100914.03
2022-09-10T03:50:34.190Z,100918.06
2022-09-10T03:53:03.951Z,100914.53
2022-09-10T03:55:31.050Z,100922.69
2022-09-10T03:57:58.529Z,100912.00
2022-09-10T04:00:27.191Z,100916.75
2022-09-10T04:02:54.054Z,100917.44
2022-09-10T04:05:21.657Z,100918.41
2022-09-10T04:07:49.041Z,100915.63
2022-09-10T04:10:16.290Z,100923.53
2022-09-10T04:12:43.612Z,100921.34
2022-09-10T04:15:10.929Z,100924.72
2022-09-10T04:17:39.309Z,100927.38
2022-09-10T04:20:07.319Z,100924.72
2022-09-10T04:22:34.871Z,100927.13
2022-09-10T04:25:01.961Z,100923.38
2022-09-10T04:27:28.767Z,100918.47
2022-09-10T04:29:56.628Z,100931.53
2022-09-10T04:32:23.880Z,100933.22
2022-09-10T04:34:52.294Z,100936.84
2022-09-10T04:37:19.536Z,100945.91
2022-09-10T04:39:47.349Z,100940.41
2022-09-10T04:42:15.461Z,100942.59
2022-09-10T04:44:42.334Z,100941.47
2022-09-10T04:47:09.215Z,100945.72
2022-09-10T04:49:36.177Z,100946.44
2022-09-10T04:52:04.930Z,100941.22
2022-09-10T04:54:33.650Z,100940.09
2022-09-10T04:57:01.164Z,100944.50
2022-09-10T04:59:29.757Z,100943.00
2022-09-10T05:01:57.760Z,100949.91
2022-09-10T05:04:25.535Z,100941.34
2022-09-10T05:06:53.543Z,100957.47
2022-09-10T05:09:21.776Z,100961.75
2022-09-10T05:11:49.875Z,100968.56
2022-09-10T05:14:19.173Z,100966.59
2022-09-10T05:16:47.043Z,100960.97
2022-09-10T05:19:17.952Z,100966.72
2022-09-10T05:21:53.348Z,100977.56
2022-09-10T05:24:21.496Z,100969.78
2022-09-10T05:26:48.702Z,100970.97
2022-09-10T05:29:16.781Z,100978.47
2022-09-10T05:31:44.494Z,100973.66
2022-09-10T05:34:11.369Z,100979.00
2022-09-10T05:36:38.421Z,100975.34
2022-09-10T05:39:05.468Z,100975.63
2022-09-10T05:41:37.739Z,100972.53
2022-09-10T05:44:05.597Z,100978.72
2022-09-10T05:46:33.354Z,100983.13
2022-09-10T05:49:07.889Z,100976.19
2022-09-10T05:51:34.862Z,100982.53
2022-09-10T05:54:03.749Z,100984.09
2022-09-10T05:56:32.460Z,100996.25
2022-09-10T05:59:00.900Z,100996.16
2022-09-10T06:01:29.202Z,101000.69
2022-09-10T06:03:56.435Z,100999.69
2022-09-10T06:06:24.149Z,101006.09
2022-09-10T06:08:57.350Z,101005.44
2022-09-10T06:11:38.695Z,101013.41
2022-09-10T06:14:07.502Z,101012.91
2022-09-10T06:16:35.022Z,101019.75
2022-09-10T06:19:03.010Z,101015.66
2022-09-10T06:21:29.987Z,101017.22
2022-09-10T06:23:58.353Z,101010.75
2022-09-10T06:26:27.862Z,101018.66
2022-09-10T06:28:58.571Z,101026.03
2022-09-10T06:31:27.684Z,101019.72
2022-09-10T06:33:55.623Z,101017.78
2022-09-10T06:36:27.658Z,101022.84
2022-09-10T06:38:57.897Z,101028.03
2022-09-10T06:41:26.015Z,101026.38
2022-09-10T06:44:04.545Z,101030.78
2022-09-10T06:47:30.523Z,101025.56
2022-09-10T06:49:34.543Z,101030.38
2022-09-10T06:52:04.650Z,101030.94
2022-09-10T06:54:31.975Z,101037.28
2022-09-10T06:57:10.318Z,101041.41
2022-09-10T06:59:37.389Z,101047.53
2022-09-10T07:02:05.616Z,101045.69
2022-09-10T07:04:32.559Z,101039.06
2022-09-10T07:07:00.886Z,101045.28
2022-09-10T07:09:28.788Z,101055.03
2022-09-10T07:11:57.847Z,101051.09
2022-09-10T07:14:25.526Z,101066.47
2022-09-10T07:16:53.523Z,101064.94
2022-09-10T07:19:25.365Z,101068.19
2022-09-10T07:21:52.609Z,101075.28
2022-09-10T07:24:20.269Z,101073.41
2022-09-10T07:27:07.365Z,101082.13
2022-09-10T07:29:35.801Z,101089.19
2022-09-10T07:32:04.520Z,101089.84
2022-09-10T07:34:33.766Z,101094.47
2022-09-10T07:37:01.905Z,101103.59
2022-09-10T07:39:30.522Z,101103.88
2022-09-10T07:41:58.138Z,101108.56
2022-09-10T07:44:28.302Z,101110.72
2022-09-10T07:46:59.693Z,101115.41
2022-09-10T07:49:27.869Z,101111.84
2022-09-10T07:51:59.851Z,101109.69
2022-09-10T07:54:31.518Z,101123.84
2022-09-10T07:56:59.823Z,101115.53
2022-09-10T07:59:27.352Z,101119.72
2022-09-10T08:02:01.946Z,101128.13
2022-09-10T08:04:36.551Z,101128.84
2022-09-10T08:07:07.517Z,101135.19
2022-09-10T08:09:37.557Z,101135.88
2022-09-10T08:12:07.728Z,101139.13
2022-09-10T08:14:34.802Z,101132.28
2022-09-10T08:17:02.174Z,101142.00
2022-09-10T08:19:29.814Z,101149.22
2022-09-10T08:21:59.549Z,101146.00
2022-09-10T08:24:32.742Z,101151.94
2022-09-10T08:26:59.948Z,101152.09
2022-09-10T08:29:26.793Z,101159.81
2022-09-10T08:31:53.773Z,101160.94
2022-09-10T08:34:27.163Z,101162.94
2022-09-10T08:37:03.471Z,101170.66
2022-09-10T08:39:33.755Z,101175.91
2022-09-10T08:42:05.653Z,101174.69
2022-09-10T08:44:40.652Z,101175.81
2022-09-10T08:47:21.268Z,101179.16
2022-09-10T08:49:54.406Z,101185.47
2022-09-10T08:52:29.886Z,101189.81
2022-09-10T08:55:04.554Z,101193.41
2022-09-10T08:57:34.928Z,101193.31
2022-09-10T09:00:03.730Z,101199.50
2022-09-10T09:02:49.160Z,101203.31
2022-09-10T09:05:20.518Z,101209.72
2022-09-10T09:07:51.338Z,101213.34
2022-09-10T09:10:32.609Z,101223.09
2022-09-10T09:13:26.617Z,101224.44
2022-09-10T09:16:05.030Z,101224.00
2022-09-10T09:18:38.348Z,101220.19
2022-09-10T09:21:13.105Z,101223.41
2022-09-10T09:24:11.815Z,101219.44
2022-09-10T09:26:41.687Z,101222.53
2022-09-10T09:29:14.461Z,101224.56
2022-09-10T09:31:46.541Z,101229.91
2022-09-10T09:34:22.097Z,101240.94
2022-09-10T09:36:52.791Z,101227.22
2022-09-10T09:39:25.783Z,101238.59
2022-09-10T09:42:04.628Z,101237.75
2022-09-10T09:44:38.897Z,101245.63
2022-09-10T09:47:07.707Z,101250.63
2022-09-10T09:49:36.010Z,101252.47
2022-09-10T09:52:15.253Z,101257.66
2022-09-10T09:55:13.070Z,101256.97
2022-09-10T09:57:37.155Z,101255.16
2022-09-10T10:00:36.053Z,101262.59
2022-09-10T10:03:15.805Z,101265.50
2022-09-10T10:05:42.976Z,101263.63
2022-09-10T10:08:28.985Z,101253.78
2022-09-10T10:10:56.149Z,101259.22
2022-09-10T10:13:24.673Z,101274.06
2022-09-10T10:15:51.772Z,101279.31
2022-09-10T10:18:31.977Z,101274.81
2022-09-10T10:21:14.278Z,101277.53
2022-09-10T10:23:41.162Z,101268.41
2022-09-10T10:26:26.272Z,101280.88
2022-09-10T10:28:59.953Z,101278.16
2022-09-10T10:31:39.945Z,101287.22
2022-09-10T10:34:34.614Z,101275.94
2022-09-10T10:37:08.829Z,101274.78
2022-09-10T10:39:53.265Z,101286.78
2022-09-10T10:42:27.943Z,101290.91
2022-09-10T10:45:17.126Z,101292.13
2022-09-10T10:47:48.799Z,101294.44
2022-09-10T10:50:30.022Z,101295.38
2022-09-10T10:53:22.837Z,101301.25
2022-09-10T10:55:57.276Z,101304.78
2022-09-10T10:58:53.539Z,101306.28
2022-09-10T11:01:25.214Z,101308.84
2022-09-10T11:04:01.045Z,101315.81
2022-09-10T11:06:35.257Z,101321.38
2022-09-10T11:09:06.416Z,101303.91
2022-09-10T11:11:39.378Z,101298.97
2022-09-10T11:14:19.079Z,101303.75
2022-09-10T11:16:55.347Z,101308.44
2022-09-10T11:19:35.695Z,101302.28
2022-09-10T11:22:09.683Z,101305.22
2022-09-10T11:24:44.034Z,101306.94
2022-09-10T11:27:14.601Z,101300.63
2022-09-10T11:29:48.319Z,101302.09
2022-09-10T11:32:27.044Z,101300.41
2022-09-10T11:35:02.468Z,101296.69
2022-09-10T11:37:43.742Z,101312.72
2022-09-10T11:40:17.654Z,101307.22
2022-09-10T11:42:51.396Z,101307.09
2022-09-10T11:45:23.135Z,101301.53
2022-09-10T11:47:57.214Z,101310.94
2022-09-10T11:50:34.552Z,101310.41
2022-09-10T11:53:04.030Z,101308.06
2022-09-10T11:55:40.394Z,101312.34
2022-09-10T11:58:17.592Z,101324.50
2022-09-10T12:00:55.174Z,101323.41
2022-09-10T12:03:53.052Z,101330.56
2022-09-10T12:06:26.644Z,101332.72
2022-09-10T12:09:05.900Z,101328.72
2022-09-10T12:11:40.935Z,101323.44
2022-09-10T12:14:13.830Z,101337.94
2022-09-10T12:16:46.366Z,101337.94
2022-09-10T12:19:23.094Z,101335.88
2022-09-10T12:21:53.163Z,101326.66
2022-09-10T12:24:27.725Z,101341.78
2022-09-10T12:26:55.181Z,101338.16
2022-09-10T12:29:33.236Z,101339.97
2022-09-10T12:32:29.074Z,101342.44
2022-09-10T12:35:46.708Z,101343.19
2022-09-10T12:38:50.944Z,101345.69
2022-09-10T12:41:57.598Z,101356.91
2022-09-10T12:44:45.918Z,101348.44
2022-09-10T12:47:42.136Z,101354.41
2022-09-10T12:50:46.346Z,101348.16
2022-09-10T12:53:55.387Z,101355.59
2022-09-10T12:56:50.545Z,101356.31
2022-09-10T12:59:39.684Z,101359.16
2022-09-10T13:02:20.639Z,101362.56
2022-09-10T13:04:54.915Z,101359.94
2022-09-10T13:07:25.592Z,101363.88
2022-09-10T13:10:01.756Z,101361.03
2022-09-10T13:12:32.751Z,101370.03
2022-09-10T13:15:02.736Z,101361.16
2022-09-10T13:17:38.610Z,101370.66
2022-09-10T13:20:29.592Z,101369.72
2022-09-10T13:22:58.501Z,101377.47
2022-09-10T13:25:35.035Z,101380.88
2022-09-10T13:28:02.321Z,101366.56
2022-09-10T13:30:31.083Z,101366.72
2022-09-10T13:33:00.532Z,101372.19
2022-09-10T13:36:02.546Z,101380.63
2022-09-10T13:38:54.036Z,101379.25
2022-09-10T13:41:49.868Z,101375.03
2022-09-10T13:44:33.275Z,101381.97
2022-09-10T13:47:09.411Z,101385.84
2022-09-10T13:49:44.697Z,101387.25
2022-09-10T13:52:15.449Z,101388.56
2022-09-10T13:54:47.637Z,101386.75
2022-09-10T13:57:19.393Z,101395.38
2022-09-10T13:59:50.270Z,101395.00
2022-09-10T14:02:21.436Z,101394.31
2022-09-10T14:04:48.714Z,101400.41
2022-09-10T14:07:20.292Z,101397.28
2022-09-10T14:09:49.714Z,101407.88
2022-09-10T14:12:20.962Z,101402.47
2022-09-10T14:14:52.273Z,101407.34
2022-09-10T14:17:24.140Z,101405.06
2022-09-10T14:19:56.552Z,101402.59
2022-09-10T14:22:26.050Z,101412.72
2022-09-10T14:33:53.118Z,101422.94
2022-09-10T14:36:23.136Z,101432.75
2022-09-10T14:38:56.315Z,101429.09
2022-09-10T14:41:26.323Z,101426.06
2022-09-10T14:44:14.997Z,101429.97
2022-09-10T14:46:51.675Z,101424.06
2022-09-10T14:49:26.708Z,101426.25
2022-09-10T14:51:53.791Z,101429.59
2022-09-10T14:54:20.847Z,101433.44
2022-09-10T14:56:48.729Z,101440.34
2022-09-10T14:59:18.568Z,101446.47
2022-09-10T15:01:48.711Z,101448.72
2022-09-10T15:04:17.555Z,101445.69
2022-09-10T15:06:45.856Z,101446.00
2022-09-10T15:09:13.458Z,101444.53
2022-09-10T15:11:49.048Z,101446.66
2022-09-10T15:14:17.183Z,101439.53
2022-09-10T15:16:44.234Z,101448.94
2022-09-10T15:19:11.763Z,101445.88
2022-09-10T15:21:39.562Z,101453.88
2022-09-10T15:24:12.590Z,101459.19
2022-09-10T15:26:39.412Z,101457.56
2022-09-10T15:29:06.252Z,101456.91
2022-09-10T15:31:33.092Z,101460.78
2022-09-10T15:34:00.085Z,101467.19
2022-09-10T15:36:28.520Z,101460.97
2022-09-10T15:38:55.814Z,101469.38
2022-09-10T15:41:23.971Z,101472.72
2022-09-10T15:43:51.020Z,101475.47
2022-09-10T15:46:20.143Z,101472.19
2022-09-10T15:48:47.675Z,101471.75
2022-09-10T15:51:15.837Z,101465.31
2022-09-10T15:53:43.625Z,101472.72
2022-09-10T15:56:11.876Z,101469.19
2022-09-10T15:58:40.816Z,101460.28
2022-09-10T16:01:11.507Z,101477.41
2022-09-10T16:03:39.276Z,101477.88
2022-09-10T16:06:07.570Z,101484.13
2022-09-10T16:08:34.435Z,101484.56
2022-09-10T16:11:07.958Z,101492.34
2022-09-10T16:13:35.713Z,101483.88
2022-09-10T16:16:06.843Z,101485.56
2022-09-10T16:18:33.921Z,101496.69
2022-09-10T16:21:09.367Z,101501.41
2022-09-10T16:23:37.220Z,101496.00
2022-09-10T16:26:06.182Z,101503.66
2022-09-10T16:28:33.323Z,101500.56
2022-09-10T16:31:13.763Z,101507.25
2022-09-10T16:33:40.790Z,101508.94
2022-09-10T16:36:08.478Z,101509.06
2022-09-10T16:38:35.507Z,101509.66
2022-09-10T16:41:02.600Z,101509.34
2022-09-10T16:43:31.273Z,101517.44
2022-09-10T16:45:58.121Z,101525.81
2022-09-10T16:48:26.198Z,101529.22
2022-09-10T16:51:01.792Z,101532.19
2022-09-10T16:53:28.541Z,101534.59
2022-09-10T16:56:01.045Z,101529.78
2022-09-10T16:58:30.905Z,101532.34
2022-09-10T17:00:59.653Z,101538.72
2022-09-10T17:03:29.926Z,101537.47
2022-09-10T17:05:56.988Z,101551.06
2022-09-10T17:08:23.941Z,101538.91
2022-09-10T17:10:50.696Z,101550.94
2022-09-10T17:13:17.492Z,101553.06
2022-09-10T17:15:44.626Z,101547.09
2022-09-10T17:18:14.564Z,101553.47
2022-09-10T17:20:43.169Z,101551.91
2022-09-10T17:23:11.050Z,101545.66
2022-09-10T17:25:38.199Z,101549.78
2022-09-10T17:28:05.388Z,101545.22
2022-09-10T17:30:32.196Z,101558.53
2022-09-10T17:32:59.706Z,101554.28
2022-09-10T17:35:26.759Z,101560.59
2022-09-10T17:37:54.982Z,101568.22
2022-09-10T17:40:21.769Z,101572.00
2022-09-10T17:42:49.021Z,101558.41
2022-09-10T17:45:16.219Z,101568.00
2022-09-10T17:47:43.008Z,101574.06
2022-09-10T17:50:10.217Z,101565.81
2022-09-10T17:52:36.968Z,101577.72
2022-09-10T17:55:05.842Z,101578.38
2022-09-10T17:57:32.670Z,101576.88
2022-09-10T17:59:59.458Z,101586.06
2022-09-10T18:02:26.256Z,101584.88
2022-09-10T18:04:53.322Z,101593.81
2022-09-10T18:07:20.297Z,101594.66
2022-09-10T18:09:47.590Z,101592.75
2022-09-10T18:12:16.204Z,101604.50
2022-09-10T18:14:43.010Z,101610.25
2022-09-10T18:17:09.909Z,101609.78
2022-09-10T18:19:36.688Z,101610.19
2022-09-10T18:22:03.493Z,101611.19
2022-09-10T18:24:30.364Z,101624.50
2022-09-10T18:26:57.928Z,101623.41
2022-09-10T18:29:30.003Z,101640.28
2022-09-10T18:31:58.551Z,101637.19
2022-09-10T18:34:27.954Z,101634.78
2022-09-10T18:36:57.546Z,101623.94
2022-09-10T18:39:25.650Z,101652.97
2022-09-10T18:41:52.902Z,101656.19
2022-09-10T18:44:21.846Z,101656.94
2022-09-10T18:46:51.045Z,101668.03
2022-09-10T18:49:21.406Z,101673.78
2022-09-10T18:51:48.737Z,101671.94
2022-09-10T18:54:17.112Z,101676.22
2022-09-10T18:56:45.072Z,101673.31
2022-09-10T18:59:13.142Z,101670.38
2022-09-10T19:01:43.219Z,101685.78
2022-09-10T19:04:13.321Z,101685.28
2022-09-10T19:06:43.259Z,101687.75
2022-09-10T19:09:13.001Z,101690.69
2022-09-10T19:11:41.855Z,101694.47
2022-09-10T19:14:14.358Z,101692.66
2022-09-10T19:16:41.670Z,101708.03
2022-09-10T19:19:18.581Z,101709.00
2022-09-10T19:21:48.511Z,101713.50
2022-09-10T19:24:16.738Z,101712.53
2022-09-10T19:26:44.535Z,101715.84
2022-09-10T19:29:12.903Z,101716.56
2022-09-10T19:31:40.961Z,101720.47
2022-09-10T19:34:10.138Z,101714.63
2022-09-10T19:36:37.170Z,101720.00
2022-09-10T19:39:07.469Z,101729.28
2022-09-10T19:41:35.579Z,101728.50
2022-09-10T19:44:03.661Z,101726.09
2022-09-10T19:46:31.312Z,101733.91
2022-09-10T19:48:59.914Z,101732.44
2022-09-10T19:51:28.858Z,101736.59
2022-09-10T19:53:56.307Z,101736.81
2022-09-10T19:56:27.377Z,101732.16
2022-09-10T19:58:58.564Z,101731.19
2022-09-10T20:01:27.649Z,101733.69
2022-09-10T20:03:55.910Z,101732.94
2022-09-10T20:06:25.504Z,101742.47
2022-09-10T20:08:52.750Z,101742.59
2022-09-10T20:11:21.633Z,101742.59
2022-09-10T20:13:54.218Z,101736.50
2022-09-10T20:16:21.130Z,101738.56
2022-09-10T20:18:51.568Z,101747.56
2022-09-10T20:21:22.115Z,101738.66
2022-09-10T20:23:51.596Z,101744.25
2022-09-10T20:26:19.354Z,101745.22
2022-09-10T20:28:52.819Z,101741.69
2022-09-10T20:31:20.766Z,101743.50
2022-09-10T20:33:49.226Z,101739.13
2022-09-10T20:36:17.584Z,101739.84
2022-09-10T20:38:45.361Z,101745.97
2022-09-10T20:41:12.281Z,101748.44
2022-09-10T20:43:39.640Z,101749.22
2022-09-10T20:46:14.348Z,101747.44
2022-09-10T20:48:44.826Z,101749.25
2022-09-10T20:51:14.223Z,101747.44
2022-09-10T20:53:41.768Z,101751.94
2022-09-10T20:56:11.501Z,101753.91
2022-09-10T20:58:39.182Z,101751.09
2022-09-10T21:01:09.948Z,101755.84
2022-09-10T21:03:37.546Z,101768.53
2022-09-10T21:06:04.622Z,101766.47
2022-09-10T21:08:31.762Z,101763.78
2022-09-10T21:11:02.723Z,101766.56
2022-09-10T21:13:29.596Z,101770.50
2022-09-10T21:16:11.310Z,101782.09
2022-09-10T21:18:41.053Z,101783.53
2022-09-10T21:21:09.348Z,101789.78
2022-09-10T21:23:42.086Z,101783.31
2022-09-10T21:26:08.901Z,101787.31
2022-09-10T21:28:35.725Z,101793.91
2022-09-10T21:31:03.558Z,101800.03
2022-09-10T21:33:32.024Z,101789.78
2022-09-10T21:36:00.316Z,101780.75
2022-09-10T21:38:27.183Z,101800.16
2022-09-10T21:40:57.630Z,101798.56
2022-09-10T21:43:25.166Z,101804.78
2022-09-10T21:45:52.353Z,101805.16
2022-09-10T21:48:19.618Z,101811.50
2022-09-10T21:50:48.264Z,101815.28
2022-09-10T21:53:17.002Z,101807.56
2022-09-10T21:55:43.834Z,101823.28
2022-09-10T21:58:10.662Z,101827.19
2022-09-10T22:00:37.582Z,101825.28
2022-09-10T22:03:04.335Z,101821.97
2022-09-10T22:05:31.130Z,101828.22
2022-09-10T22:07:59.283Z,101819.78
2022-09-10T22:10:26.607Z,101831.41
2022-09-10T22:12:53.417Z,101822.50
2022-09-10T22:15:20.141Z,101834.34
2022-09-10T22:17:46.873Z,101834.47
2022-09-10T22:20:13.577Z,101834.59
2022-09-10T22:22:40.312Z,101832.03
2022-09-10T22:25:09.285Z,101839.97
2022-09-10T22:27:36.069Z,101829.56
2022-09-10T22:30:04.762Z,101835.81
2022-09-10T22:32:33.968Z,101834.94
2022-09-10T22:35:01.276Z,101837.88
2022-09-10T22:37:28.123Z,101843.97
2022-09-10T22:39:55.278Z,101841.28
2022-09-10T22:42:23.483Z,101843.97
2022-09-10T22:44:50.167Z,101846.91
2022-09-10T22:47:16.961Z,101851.31
2022-09-10T22:49:46.477Z,101853.75
2022-09-10T22:52:13.551Z,101851.06
2022-09-10T22:54:40.586Z,101856.03
2022-09-10T22:57:08.403Z,101851.25
2022-09-10T22:59:37.864Z,101842.69
2022-09-10T23:02:04.912Z,101861.00
2022-09-10T23:04:31.763Z,101860.28
2022-09-10T23:06:58.591Z,101850.47
2022-09-10T23:09:25.577Z,101863.16
2022-09-10T23:11:52.636Z,101875.59
2022-09-10T23:14:21.815Z,101876.66
2022-09-10T23:16:51.929Z,101879.63
2022-09-10T23:19:21.721Z,101881.22
2022-09-10T23:21:51.170Z,101876.66
2022-09-10T23:24:20.107Z,101876.94
2022-09-10T23:26:47.111Z,101884.19
2022-09-10T23:29:16.895Z,101882.44
2022-09-10T23:31:46.025Z,101887.09
2022-09-10T23:34:16.082Z,101890.34
2022-09-10T23:36:45.627Z,101880.31
2022-09-10T23:39:14.473Z,101897.72
2022-09-10T23:41:41.834Z,101895.84
2022-09-10T23:44:09.127Z,101896.56
2022-09-10T23:46:36.718Z,101897.03
2022-09-10T23:49:04.648Z,101905.84
2022-09-10T23:51:33.369Z,101892.44
2022-09-10T23:54:00.197Z,101894.88
2022-09-10T23:56:28.528Z,101906.88
2022-09-10T23:58:56.246Z,101899.31
